Time;durP1;ratioP1;P1;durP2;ratioP2;P2;SDS_P1;SDS_P2;PMS_P1;PMS_P2;Temp;Humidity;BMP_temperature;BMP_pressure;BME280_temperature;BME280_humidity;BME280_pressure;Samples;Min_cycle;Max_cycle;Signal;HPM_P1;HPM_P2
2023/10/24 00:01:37;;;;;;;;;1.00;1.00;;;;;14.49;74.35;98627.16;5095042;28;8822;-57
2023/10/24 00:04:05;;;;;;;;;3.50;2.50;;;;;14.52;74.49;98631.31;5095377;28;8908;-57
2023/10/24 00:06:33;;;;;;;;;0.25;0.00;;;;;14.55;74.44;98628.28;5095049;28;8834;-58
2023/10/24 00:09:04;;;;;;;;;3.75;3.00;;;;;14.54;74.83;98632.81;5094784;28;8846;-57
2023/10/24 00:11:32;;;;;;;;;2.50;2.50;;;;;14.53;74.84;98633.84;5096268;28;8874;-56
2023/10/24 00:14:00;;;;;;;;;2.20;2.20;;;;;14.52;74.51;98620.63;5095196;28;8830;-57
2023/10/24 00:16:27;;;;;;;;;3.00;3.00;;;;;14.46;75.22;98635.56;5095051;28;8873;-57
2023/10/24 00:18:55;;;;;;;;;3.00;3.00;;;;;14.43;74.80;98635.91;5095859;28;8833;-57
2023/10/24 00:21:23;;;;;;;;;3.00;3.00;;;;;14.41;75.00;98631.75;5095039;28;8860;-57
2023/10/24 00:23:52;;;;;;;;;3.75;3.00;;;;;14.38;75.47;98638.28;5095210;28;8848;-57
2023/10/24 00:26:19;;;;;;;;;0.00;0.00;;;;;14.40;75.53;98635.41;5095124;28;9124;-57
2023/10/24 00:28:47;;;;;;;;;2.50;2.50;;;;;14.43;75.47;98643.94;5094596;28;8854;-57
2023/10/24 00:31:14;;;;;;;;;1.00;1.00;;;;;14.48;75.74;98643.44;5094796;28;8814;-57
2023/10/24 00:33:42;;;;;;;;;1.50;1.50;;;;;14.51;75.45;98643.06;5094953;28;8865;-59
2023/10/24 00:36:10;;;;;;;;;1.50;1.00;;;;;14.53;75.37;98638.34;5094560;28;8848;-57
2023/10/24 00:38:37;;;;;;;;;3.00;3.00;;;;;14.54;75.19;98637.34;5095150;28;8845;-57
2023/10/24 00:41:05;;;;;;;;;1.00;0.00;;;;;14.56;74.77;98640.69;5095005;28;8869;-57
2023/10/24 00:43:33;;;;;;;;;3.25;2.00;;;;;14.59;75.34;98640.31;5095020;28;8841;-57
2023/10/24 00:46:01;;;;;;;;;1.40;1.00;;;;;14.60;74.99;98639.31;5094727;28;8811;-56
2023/10/24 00:48:30;;;;;;;;;1.00;1.00;;;;;14.62;75.17;98634.59;5095126;28;8822;-58
2023/10/24 00:50:57;;;;;;;;;3.25;3.00;;;;;14.63;75.00;98639.78;5094892;28;8822;-57
2023/10/24 00:53:25;;;;;;;;;2.50;1.50;;;;;14.62;75.34;98634.59;5095056;28;8838;-56
2023/10/24 00:55:52;;;;;;;;;2.00;2.00;;;;;14.60;75.04;98632.09;5094922;28;8826;-60
2023/10/24 00:58:20;;;;;;;;;7.00;4.50;;;;;14.58;75.07;98631.44;5095123;28;8814;-59
2023/10/24 01:00:47;;;;;;;;;1.00;1.00;;;;;14.54;75.55;98632.81;5094345;28;9594;-59
2023/10/24 01:03:15;;;;;;;;;0.00;0.00;;;;;14.51;75.43;98627.81;5096396;28;8837;-57
2023/10/24 01:05:43;;;;;;;;;1.00;1.00;;;;;14.48;75.77;98627.34;5098634;28;8838;-57
2023/10/24 01:08:12;;;;;;;;;2.50;2.50;;;;;14.44;75.94;98623.34;5098456;28;8806;-58
2023/10/24 01:10:40;;;;;;;;;3.00;3.00;;;;;14.40;75.49;98624.69;5098248;28;9527;-57
2023/10/24 01:13:07;;;;;;;;;1.00;1.00;;;;;14.40;75.97;98624.69;5098826;28;8826;-57
2023/10/24 01:15:35;;;;;;;;;2.50;2.00;;;;;14.39;75.88;98615.00;5098184;28;8848;-57
2023/10/24 01:18:03;;;;;;;;;2.50;2.50;;;;;14.39;75.70;98623.03;5098617;28;8956;-56
2023/10/24 01:20:31;;;;;;;;;2.50;2.50;;;;;14.40;75.99;98624.69;5098478;28;8830;-57
2023/10/24 01:22:58;;;;;;;;;1.00;1.00;;;;;14.41;75.89;98623.72;5097951;28;8864;-57
2023/10/24 01:25:26;;;;;;;;;2.50;2.50;;;;;14.39;75.99;98623.03;5098541;28;9554;-58
2023/10/24 01:27:54;;;;;;;;;0.00;0.00;;;;;14.37;76.20;98625.06;5098453;28;8834;-57
2023/10/24 01:30:22;;;;;;;;;3.00;3.00;;;;;14.37;75.77;98627.75;5098281;28;8880;-57
2023/10/24 01:32:51;;;;;;;;;3.00;2.00;;;;;14.37;75.94;98625.06;5098139;28;8845;-57
2023/10/24 01:35:19;;;;;;;;;1.50;1.50;;;;;14.36;76.17;98624.22;5098060;28;8818;-57
2023/10/24 01:37:46;;;;;;;;;1.00;1.00;;;;;14.36;75.80;98612.69;5098132;28;8849;-57
2023/10/24 01:40:14;;;;;;;;;2.00;1.00;;;;;14.34;75.99;98620.91;5097924;28;8954;-57
2023/10/24 01:42:41;;;;;;;;;1.00;1.00;;;;;14.34;75.61;98620.09;5098246;28;8837;-58
2023/10/24 01:45:09;;;;;;;;;0.50;0.50;;;;;14.34;75.98;98620.09;5097757;28;8857;-57
2023/10/24 01:47:37;;;;;;;;;1.00;1.00;;;;;14.32;75.79;98616.72;5097991;28;8876;-57
2023/10/24 01:50:05;;;;;;;;;1.00;1.00;;;;;14.29;76.01;98617.94;5097821;28;8826;-60
2023/10/24 01:52:33;;;;;;;;;0.00;0.00;;;;;14.27;76.30;98613.78;5097785;28;8822;-59
2023/10/24 01:55:00;;;;;;;;;1.00;1.00;;;;;14.25;75.87;98607.72;5097906;28;8848;-58
2023/10/24 01:57:29;;;;;;;;;2.00;1.00;;;;;14.25;76.13;98613.09;5097658;28;8818;-60
2023/10/24 01:59:56;;;;;;;;;1.50;1.50;;;;;14.27;75.82;98613.78;5097692;28;8810;-58
2023/10/24 02:02:26;;;;;;;;;2.50;1.00;;;;;14.24;76.33;98606.06;5097749;28;8845;-58
2023/10/24 02:04:54;;;;;;;;;3.00;3.00;;;;;14.19;76.05;98614.63;5097434;28;9702;-57
2023/10/24 02:07:27;;;;;;;;;2.00;1.00;;;;;14.16;76.45;98614.97;5097895;28;8822;-58
2023/10/24 02:09:55;;;;;;;;;3.00;2.50;;;;;14.11;76.61;98614.66;5097702;28;8826;-59
2023/10/24 02:12:22;;;;;;;;;0.20;0.20;;;;;14.11;76.67;98627.22;5097549;28;8857;-57
2023/10/24 02:14:50;;;;;;;;;1.00;1.00;;;;;14.09;76.59;98610.50;5096362;28;8893;-57
2023/10/24 02:17:18;;;;;;;;;3.00;3.00;;;;;14.06;76.47;98610.84;5097902;28;8837;-57
2023/10/24 02:19:45;;;;;;;;;3.00;3.00;;;;;14.03;76.20;98612.03;5097443;28;8826;-60
2023/10/24 02:22:13;;;;;;;;;2.00;2.00;;;;;14.03;76.75;98619.25;5097432;28;8830;-57
2023/10/24 02:24:41;;;;;;;;;3.00;3.00;;;;;14.02;76.13;98609.53;5097268;28;8857;-57
2023/10/24 02:27:09;;;;;;;;;1.00;1.00;;;;;14.00;76.55;98617.75;5097184;28;8862;-58
2023/10/24 02:29:36;;;;;;;;;4.00;3.25;;;;;14.00;76.55;98616.91;5096985;28;8850;-58
2023/10/24 02:32:04;;;;;;;;;3.25;2.50;;;;;14.00;76.54;98628.47;5097433;28;8834;-58
2023/10/24 02:34:32;;;;;;;;;2.00;2.00;;;;;14.01;76.88;98619.41;5096806;28;8822;-58
2023/10/24 02:37:00;;;;;;;;;4.00;4.00;;;;;14.02;76.78;98622.91;5096685;28;8833;-56
2023/10/24 02:39:27;;;;;;;;;1.00;0.67;;;;;14.01;76.74;98607.88;5097459;28;8854;-60
2023/10/24 02:41:55;;;;;;;;;1.50;1.00;;;;;14.01;76.71;98618.56;5097105;28;8850;-58
2023/10/24 02:44:22;;;;;;;;;1.00;0.75;;;;;14.02;76.39;98609.53;5096497;28;8830;-58
2023/10/24 02:46:50;;;;;;;;;0.00;0.00;;;;;13.99;76.32;98604.53;5097015;28;8830;-57
2023/10/24 02:49:18;;;;;;;;;1.00;1.00;;;;;13.98;76.24;98618.94;5096459;28;8944;-60
2023/10/24 02:51:46;;;;;;;;;1.00;1.00;;;;;13.98;76.98;98643.03;5096764;28;8826;-57
2023/10/24 02:54:13;;;;;;;;;3.00;3.00;;;;;14.00;76.38;98627.63;5096462;28;8826;-59
2023/10/24 02:56:41;;;;;;;;;1.00;1.00;;;;;14.01;76.31;98630.13;5096139;28;8818;-58
2023/10/24 02:59:09;;;;;;;;;3.00;3.00;;;;;14.01;76.65;98642.66;5096246;28;8826;-57
2023/10/24 03:01:37;;;;;;;;;5.25;3.00;;;;;14.04;76.31;98639.66;5096479;28;8822;-57
2023/10/24 03:04:05;;;;;;;;;1.50;1.50;;;;;14.05;76.12;98638.63;5096167;28;9044;-57
2023/10/24 03:06:33;;;;;;;;;0.75;0.75;;;;;14.05;76.16;98631.41;5096040;28;8829;-57
2023/10/24 03:09:00;;;;;;;;;3.00;1.50;;;;;14.05;76.91;98633.28;5095974;28;8825;-57
2023/10/24 03:11:28;;;;;;;;;2.00;2.00;;;;;14.04;76.55;98634.31;5096140;28;8846;-58
2023/10/24 03:13:56;;;;;;;;;2.00;1.00;;;;;14.03;76.61;98627.28;5096321;28;8822;-58
2023/10/24 03:16:23;;;;;;;;;3.00;3.00;;;;;14.04;76.32;98627.09;5095858;28;8830;-59
2023/10/24 03:18:51;;;;;;;;;1.50;1.50;;;;;14.04;76.21;98642.34;5096215;28;8826;-58
2023/10/24 03:21:19;;;;;;;;;3.75;3.00;;;;;14.04;75.85;98634.31;5096071;28;8833;-57
2023/10/24 03:23:47;;;;;;;;;3.00;3.00;;;;;14.04;76.60;98629.75;5095928;28;8857;-57
2023/10/24 03:26:14;;;;;;;;;0.00;0.00;;;;;14.05;76.24;98625.25;5096000;28;9500;-58
2023/10/24 03:28:42;;;;;;;;;1.50;1.50;;;;;14.06;76.29;98632.28;5095756;28;8830;-57
2023/10/24 03:31:09;;;;;;;;;1.00;1.00;;;;;14.06;76.22;98630.44;5095534;28;8834;-58
2023/10/24 03:33:37;;;;;;;;;0.75;0.75;;;;;14.07;76.44;98636.59;5095681;28;8846;-58
2023/10/24 03:36:05;;;;;;;;;1.00;1.00;;;;;14.07;76.49;98628.56;5096013;28;8869;-58
2023/10/24 03:38:32;;;;;;;;;0.50;0.00;;;;;14.07;76.45;98626.75;5095750;28;8849;-58
2023/10/24 03:41:00;;;;;;;;;1.00;1.00;;;;;14.06;76.77;98626.91;5096105;28;8842;-57
2023/10/24 03:43:27;;;;;;;;;1.50;1.00;;;;;14.05;76.63;98625.25;5095479;28;8864;-57
2023/10/24 03:45:55;;;;;;;;;3.00;1.00;;;;;14.06;76.75;98637.63;5095600;28;8848;-57
2023/10/24 03:48:23;;;;;;;;;2.50;2.50;;;;;14.06;76.48;98637.63;5095716;28;8822;-58
2023/10/24 03:50:50;;;;;;;;;3.00;3.00;;;;;14.05;76.79;98627.94;5095712;28;8834;-59
2023/10/24 03:53:18;;;;;;;;;0.00;0.00;;;;;14.07;76.33;98625.91;5095461;28;9520;-57
2023/10/24 03:55:45;;;;;;;;;1.00;1.00;;;;;14.08;76.48;98627.56;5095605;28;8826;-58
2023/10/24 03:58:13;;;;;;;;;2.00;2.00;;;;;14.09;76.69;98643.47;5095416;28;8833;-58
2023/10/24 04:00:41;;;;;;;;;0.75;0.75;;;;;14.08;76.59;98636.44;5095583;28;8818;-59
2023/10/24 04:03:08;;;;;;;;;0.00;0.00;;;;;14.10;76.42;98634.41;5094925;28;8926;-58
2023/10/24 04:05:38;;;;;;;;;1.00;1.00;;;;;14.11;76.38;98627.22;5095669;28;8818;-57
2023/10/24 04:08:05;;;;;;;;;0.50;0.50;;;;;14.11;76.05;98632.59;5095140;28;8822;-57
2023/10/24 04:10:33;;;;;;;;;0.00;0.00;;;;;14.09;76.02;98632.75;5094525;28;8830;-57
2023/10/24 04:13:00;;;;;;;;;0.75;0.50;;;;;14.08;76.65;98619.53;5095452;28;8899;-57
2023/10/24 04:15:28;;;;;;;;;0.00;0.00;;;;;14.08;76.67;98619.53;5095013;28;8846;-57
2023/10/24 04:17:56;;;;;;;;;1.00;1.00;;;;;14.08;76.22;98630.25;5095076;28;8822;-58
2023/10/24 04:20:24;;;;;;;;;1.00;1.00;;;;;14.08;76.21;98640.94;5095814;28;8810;-57
2023/10/24 04:22:52;;;;;;;;;0.50;0.50;;;;;14.07;76.08;98637.47;5094727;28;8826;-57
2023/10/24 04:25:20;;;;;;;;;1.00;1.00;;;;;14.05;76.46;98630.59;5094655;28;8834;-57
2023/10/24 04:27:48;;;;;;;;;2.50;1.50;;;;;14.06;76.20;98616.22;5094650;28;8924;-58
2023/10/24 04:30:16;;;;;;;;;1.00;1.00;;;;;14.06;76.29;98621.56;5094398;28;8814;-57
2023/10/24 04:32:43;;;;;;;;;1.00;1.00;;;;;14.06;76.27;98621.56;5094443;28;8830;-58
2023/10/24 04:35:11;;;;;;;;;1.00;1.00;;;;;14.04;76.73;98612.88;5094531;28;8965;-57
2023/10/24 04:37:39;;;;;;;;;2.00;2.00;;;;;14.00;76.34;98620.44;5093900;28;8834;-57
2023/10/24 04:40:07;;;;;;;;;0.00;0.00;;;;;14.00;76.60;98627.63;5094495;28;8861;-57
2023/10/24 04:42:34;;;;;;;;;1.50;1.50;;;;;13.99;76.62;98624.13;5094588;28;8906;-58
2023/10/24 04:45:02;;;;;;;;;1.00;1.00;;;;;13.98;76.45;98621.63;5094711;28;8893;-57
2023/10/24 04:47:29;;;;;;;;;0.75;0.25;;;;;13.97;76.86;98628.78;5094925;28;8856;-58
2023/10/24 04:49:57;;;;;;;;;1.00;1.00;;;;;13.97;76.43;98622.63;5094399;28;8833;-57
2023/10/24 04:52:25;;;;;;;;;1.00;1.00;;;;;13.97;76.61;98622.63;5094368;28;8815;-57
2023/10/24 04:54:53;;;;;;;;;0.50;0.50;;;;;13.96;76.92;98618.28;5093712;28;9530;-57
2023/10/24 04:57:20;;;;;;;;;1.00;1.00;;;;;13.95;76.67;98624.63;5093829;28;10222;-60
2023/10/24 04:59:48;;;;;;;;;0.00;0.00;;;;;13.95;76.63;98627.28;5094059;28;8830;-57
2023/10/24 05:02:15;;;;;;;;;1.00;1.00;;;;;13.94;76.36;98631.84;5093992;28;8822;-57
2023/10/24 05:04:43;;;;;;;;;2.00;2.00;;;;;13.94;76.82;98631.84;5094244;28;8960;-58
2023/10/24 05:07:11;;;;;;;;;0.25;0.25;;;;;13.96;77.20;98631.66;5094055;28;8829;-57
2023/10/24 05:09:38;;;;;;;;;1.00;1.00;;;;;13.96;76.76;98612.94;5093698;28;8896;-58
2023/10/24 05:12:06;;;;;;;;;0.00;0.00;;;;;13.95;76.73;98609.41;5094222;28;8940;-58
2023/10/24 05:14:34;;;;;;;;;0.50;0.00;;;;;13.95;77.11;98621.94;5094017;28;8843;-58
2023/10/24 05:17:04;;;;;;;;;0.75;0.75;;;;;13.95;76.70;98617.44;5094037;28;8822;-56
2023/10/24 05:19:32;;;;;;;;;1.00;0.50;;;;;13.95;76.13;98609.41;5093995;28;8956;-57
2023/10/24 05:22:00;;;;;;;;;0.00;0.00;;;;;13.95;76.25;98609.41;5093595;28;9608;-58
2023/10/24 05:24:28;;;;;;;;;0.50;0.50;;;;;13.94;76.79;98597.03;5093404;28;9555;-57
2023/10/24 05:26:55;;;;;;;;;1.00;1.00;;;;;13.93;76.21;98597.19;5093365;28;8822;-57
2023/10/24 05:29:23;;;;;;;;;0.40;0.40;;;;;13.93;76.87;98594.53;5093157;28;8841;-57
2023/10/24 05:31:51;;;;;;;;;0.75;0.75;;;;;13.92;76.38;98587.50;5093248;28;9515;-59
2023/10/24 05:34:19;;;;;;;;;0.25;0.00;;;;;13.93;76.61;98589.19;5093745;28;8939;-56
2023/10/24 05:36:47;;;;;;;;;0.00;0.00;;;;;13.91;76.60;98588.53;5093723;28;8842;-57
2023/10/24 05:39:15;;;;;;;;;0.00;0.00;;;;;13.91;76.86;98592.06;5094183;28;8839;-58
2023/10/24 05:41:43;;;;;;;;;0.00;0.00;;;;;13.92;76.98;98595.53;5093757;28;8918;-59
2023/10/24 05:44:11;;;;;;;;;0.00;0.00;;;;;13.92;76.33;98603.56;5093517;28;8911;-60
2023/10/24 05:46:38;;;;;;;;;0.00;0.00;;;;;13.93;76.44;98613.25;5092939;28;8856;-58
2023/10/24 05:49:06;;;;;;;;;0.00;0.00;;;;;13.92;76.33;98628.50;5092808;28;8822;-57
2023/10/24 05:51:34;;;;;;;;;0.25;0.00;;;;;13.93;76.55;98632.00;5096262;28;8830;-57
2023/10/24 05:54:03;;;;;;;;;0.00;0.00;;;;;13.92;76.21;98633.84;5096819;28;8830;-57
2023/10/24 05:56:30;;;;;;;;;0.00;0.00;;;;;13.92;76.87;98616.94;5096507;28;9558;-58
2023/10/24 05:58:58;;;;;;;;;0.00;0.00;;;;;13.93;76.56;98615.94;5095929;28;8837;-57
2023/10/24 06:01:26;;;;;;;;;0.00;0.00;;;;;13.92;76.39;98611.59;5095994;28;8915;-57
2023/10/24 06:03:53;;;;;;;;;0.75;0.75;;;;;13.91;76.45;98601.91;5096066;28;8830;-58
2023/10/24 06:06:21;;;;;;;;;1.00;1.00;;;;;13.90;76.84;98609.09;5095874;28;8906;-57
2023/10/24 06:08:49;;;;;;;;;0.00;0.00;;;;;13.89;76.61;98612.78;5095854;28;8836;-56
2023/10/24 06:11:16;;;;;;;;;0.00;0.00;;;;;13.90;76.20;98610.94;5095788;28;8846;-57
2023/10/24 06:13:44;;;;;;;;;0.50;0.50;;;;;13.90;76.14;98617.13;5095075;28;8822;-57
2023/10/24 06:16:13;;;;;;;;;0.75;0.75;;;;;13.89;76.30;98620.81;5095108;28;8849;-57
2023/10/24 06:18:41;;;;;;;;;0.00;0.00;;;;;13.90;76.51;98610.94;5094998;28;8857;-57
2023/10/24 06:21:10;;;;;;;;;0.00;0.00;;;;;13.90;76.23;98608.28;5094588;28;8822;-57
2023/10/24 06:23:38;;;;;;;;;0.00;0.00;;;;;13.90;76.19;98605.59;5094868;28;8814;-57
2023/10/24 06:26:06;;;;;;;;;0.00;0.00;;;;;13.91;76.21;98591.19;5093625;28;8907;-58
2023/10/24 06:28:37;;;;;;;;;0.00;0.00;;;;;13.90;76.39;98601.06;5095170;28;8849;-59
2023/10/24 06:31:05;;;;;;;;;0.50;0.50;;;;;13.91;76.50;98615.28;5095046;28;8988;-57
2023/10/24 06:33:33;;;;;;;;;0.50;0.00;;;;;13.90;76.28;98609.09;5095011;28;8830;-59
2023/10/24 06:36:05;;;;;;;;;0.25;0.25;;;;;13.90;76.61;98608.28;5095135;28;8841;-57
2023/10/24 06:38:33;;;;;;;;;0.00;0.00;;;;;13.89;76.15;98602.06;5095132;28;8850;-57
2023/10/24 06:41:01;;;;;;;;;0.00;0.00;;;;;13.88;76.65;98597.72;5095641;28;8912;-57
2023/10/24 06:43:30;;;;;;;;;1.00;0.00;;;;;13.88;76.92;98602.28;5095398;28;8845;-57
2023/10/24 06:45:57;;;;;;;;;0.00;0.00;;;;;13.88;76.63;98594.25;5095249;28;8842;-58
2023/10/24 06:48:25;;;;;;;;;0.00;0.00;;;;;13.85;76.33;98592.75;5094954;28;8825;-57
2023/10/24 06:50:53;;;;;;;;;0.75;0.75;;;;;13.85;76.43;98597.25;5094865;28;8825;-56
2023/10/24 06:53:21;;;;;;;;;0.50;0.50;;;;;13.83;76.64;98602.78;5095397;28;8964;-57
2023/10/24 06:55:49;;;;;;;;;0.00;0.00;;;;;13.84;76.81;98606.28;5095063;28;8829;-57
2023/10/24 06:58:17;;;;;;;;;1.00;1.00;;;;;13.83;76.66;98599.28;5094732;28;8838;-57
2023/10/24 07:00:45;;;;;;;;;0.00;0.00;;;;;13.83;76.53;98607.31;5094513;28;8838;-59
2023/10/24 07:03:13;;;;;;;;;0.00;0.00;;;;;13.81;76.92;98602.13;5094988;28;8841;-57
2023/10/24 07:05:41;;;;;;;;;0.00;0.00;;;;;13.82;76.25;98619.03;5094659;28;8846;-57
2023/10/24 07:08:09;;;;;;;;;0.50;0.50;;;;;13.81;76.73;98622.72;5094982;28;8852;-57
2023/10/24 07:10:37;;;;;;;;;0.00;0.00;;;;;13.80;76.63;98623.69;5094485;28;8850;-58
2023/10/24 07:13:05;;;;;;;;;0.00;0.00;;;;;13.80;76.48;98618.34;5094001;28;8837;-57
2023/10/24 07:15:36;;;;;;;;;1.00;1.00;;;;;13.78;76.08;98623.88;5093846;28;8838;-57
2023/10/24 07:18:03;;;;;;;;;0.50;0.50;;;;;13.78;76.59;98623.03;5094025;28;8838;-57
2023/10/24 07:20:32;;;;;;;;;0.00;0.00;;;;;13.77;76.79;98627.56;5093492;28;8918;-57
2023/10/24 07:22:59;;;;;;;;;0.25;0.25;;;;;13.76;76.87;98627.75;5094031;28;8830;-57
2023/10/24 07:25:27;;;;;;;;;0.25;0.25;;;;;13.74;76.41;98614.53;5094200;28;8845;-57
2023/10/24 07:27:56;;;;;;;;;0.00;0.00;;;;;13.74;76.55;98624.41;5094562;28;8902;-57
2023/10/24 07:30:24;;;;;;;;;0.00;0.00;;;;;13.74;76.72;98627.09;5094484;28;8830;-58
2023/10/24 07:32:53;;;;;;;;;0.00;0.00;;;;;13.73;76.60;98620.06;5094365;28;8830;-58
2023/10/24 07:35:21;;;;;;;;;0.00;0.00;;;;;13.71;76.95;98633.63;5094245;28;9781;-57
2023/10/24 07:37:49;;;;;;;;;0.00;0.00;;;;;13.71;76.59;98633.63;5094358;28;8842;-57
2023/10/24 07:40:17;;;;;;;;;0.00;0.00;;;;;13.69;76.68;98629.44;5094575;28;8837;-57
2023/10/24 07:42:45;;;;;;;;;1.00;0.00;;;;;13.70;76.33;98620.41;5095349;28;9515;-57
2023/10/24 07:45:13;;;;;;;;;0.50;0.00;;;;;13.73;76.77;98625.44;5094066;28;8936;-57
2023/10/24 07:47:41;;;;;;;;;0.00;0.00;;;;;13.75;76.42;98616.19;5094350;28;8858;-57
2023/10/24 07:50:09;;;;;;;;;0.50;0.50;;;;;13.78;76.61;98617.69;5092893;28;8842;-57
2023/10/24 07:52:37;;;;;;;;;0.00;0.00;;;;;13.80;76.43;98613.00;5093574;28;8848;-57
2023/10/24 07:55:05;;;;;;;;;0.00;0.00;;;;;13.84;76.06;98611.66;5094057;28;8830;-57
2023/10/24 07:57:33;;;;;;;;;0.00;0.00;;;;;13.89;76.00;98614.63;5093544;28;8818;-57
2023/10/24 08:00:00;;;;;;;;;0.75;0.75;;;;;13.92;76.41;98611.59;5094263;28;8837;-57
2023/10/24 08:02:28;;;;;;;;;0.50;0.50;;;;;13.95;75.94;98616.59;5093203;28;8856;-57
2023/10/24 08:04:56;;;;;;;;;0.00;0.00;;;;;13.98;76.27;98616.25;5094339;28;8856;-57
2023/10/24 08:07:25;;;;;;;;;0.25;0.25;;;;;14.01;76.24;98622.09;5093892;28;9606;-57
2023/10/24 08:09:53;;;;;;;;;1.50;1.00;;;;;14.04;76.08;98635.13;5093993;28;8834;-57
2023/10/24 08:12:21;;;;;;;;;1.00;0.25;;;;;14.06;75.70;98626.91;5093459;28;8842;-56
2023/10/24 08:14:49;;;;;;;;;0.00;0.00;;;;;14.06;75.69;98610.84;5093625;28;8838;-57
2023/10/24 08:17:17;;;;;;;;;1.00;0.00;;;;;14.08;75.31;98619.53;5093226;28;8963;-57
2023/10/24 08:19:46;;;;;;;;;0.00;0.00;;;;;14.09;75.62;98629.22;5092413;28;9527;-57
2023/10/24 08:22:14;;;;;;;;;0.00;0.00;;;;;14.11;75.59;98640.63;5092610;28;8842;-57
2023/10/24 08:24:42;;;;;;;;;0.00;0.00;;;;;14.11;75.90;98643.28;5092289;28;8826;-56
2023/10/24 08:27:12;;;;;;;;;1.00;1.00;;;;;14.10;75.96;98654.97;5092187;28;8829;-57
2023/10/24 08:29:40;;;;;;;;;0.75;0.75;;;;;14.11;75.58;98656.69;5092672;28;8822;-57
2023/10/24 08:32:11;;;;;;;;;0.00;0.00;;;;;14.12;75.60;98650.31;5092872;28;8842;-58
2023/10/24 08:34:42;;;;;;;;;0.00;0.00;;;;;14.13;75.85;98657.34;5093125;28;8838;-57
2023/10/24 08:37:10;;;;;;;;;0.00;0.00;;;;;14.14;75.49;98664.34;5092841;28;8972;-57
2023/10/24 08:39:38;;;;;;;;;0.00;0.00;;;;;14.16;75.07;98670.34;5092108;28;8857;-57
2023/10/24 08:42:07;;;;;;;;;0.80;0.80;;;;;14.16;75.34;98670.34;5092498;28;8842;-56
2023/10/24 08:44:35;;;;;;;;;0.00;0.00;;;;;14.17;75.59;98667.50;5092555;28;8969;-57
2023/10/24 08:47:02;;;;;;;;;0.00;0.00;;;;;14.18;75.45;98663.03;5092329;28;8841;-57
2023/10/24 08:49:30;;;;;;;;;0.00;0.00;;;;;14.17;75.13;98662.16;5093050;28;8814;-58
2023/10/24 08:51:59;;;;;;;;;0.00;0.00;;;;;14.18;75.29;98652.31;5092857;28;9503;-57
2023/10/24 08:54:35;;;;;;;;;0.75;0.75;;;;;14.19;75.41;98651.31;5092752;28;8919;-57
2023/10/24 08:57:02;;;;;;;;;1.00;0.75;;;;;14.19;75.45;98657.47;5092416;28;8830;-58
2023/10/24 08:59:30;;;;;;;;;1.00;1.00;;;;;14.19;74.91;98657.47;5092913;28;8822;-58
2023/10/24 09:01:58;;;;;;;;;0.00;0.00;;;;;14.20;74.91;98663.69;5093640;28;8860;-58
2023/10/24 09:04:29;;;;;;;;;1.00;1.00;;;;;14.20;74.99;98677.06;5093333;28;8899;-57
2023/10/24 09:06:57;;;;;;;;;0.00;0.00;;;;;14.22;75.23;98669.69;5092425;28;8849;-57
2023/10/24 09:09:25;;;;;;;;;0.00;0.00;;;;;14.24;75.44;98667.66;5093124;28;8845;-59
2023/10/24 09:11:53;;;;;;;;;0.50;0.50;;;;;14.26;74.60;98652.28;5093459;28;8849;-57
2023/10/24 09:14:20;;;;;;;;;0.00;0.00;;;;;14.29;74.54;98647.41;5091266;28;8903;-57
2023/10/24 09:16:48;;;;;;;;;0.50;0.50;;;;;14.32;74.93;98640.84;5092815;28;8976;-57
2023/10/24 09:19:16;;;;;;;;;0.00;0.00;;;;;14.35;74.91;98635.97;5092584;28;8837;-56
2023/10/24 09:21:46;;;;;;;;;0.00;0.00;;;;;14.39;74.70;98642.63;5092719;28;8826;-57
2023/10/24 09:24:32;;;;;;;;;0.00;0.00;;;;;14.42;74.20;98644.13;5094638;28;8872;-57
2023/10/24 09:27:01;;;;;;;;;1.00;1.00;;;;;14.45;74.43;98633.91;5096088;28;8849;-57
2023/10/24 09:29:29;;;;;;;;;0.40;0.40;;;;;14.49;74.34;98629.84;5095691;28;8822;-57
2023/10/24 09:31:58;;;;;;;;;0.00;0.00;;;;;14.55;74.01;98630.97;5095719;28;8838;-57
2023/10/24 09:34:27;;;;;;;;;0.00;0.00;;;;;14.58;74.08;98634.13;5096053;28;8845;-58
2023/10/24 09:36:55;;;;;;;;;0.40;0.40;;;;;14.58;73.93;98642.16;5096151;28;8830;-57
2023/10/24 09:39:22;;;;;;;;;0.00;0.00;;;;;14.59;74.04;98641.16;5095235;28;8960;-56
2023/10/24 09:41:50;;;;;;;;;1.00;1.00;;;;;14.62;73.75;98637.25;5095984;28;8846;-60
2023/10/24 09:44:19;;;;;;;;;0.80;0.80;;;;;14.65;73.79;98635.06;5096782;28;8830;-57
2023/10/24 09:46:47;;;;;;;;;0.00;0.00;;;;;14.69;73.69;98630.19;5096482;28;8838;-58
2023/10/24 09:49:15;;;;;;;;;0.00;0.00;;;;;14.73;73.34;98631.50;5096235;28;8852;-57
2023/10/24 09:51:43;;;;;;;;;1.00;1.00;;;;;14.75;73.85;98624.09;5095985;28;8855;-57
2023/10/24 09:54:12;;;;;;;;;1.80;1.80;;;;;14.76;73.29;98623.94;5096504;28;8918;-57
2023/10/24 09:56:40;;;;;;;;;0.80;0.80;;;;;14.78;72.93;98619.22;5095456;28;8830;-57
2023/10/24 09:59:08;;;;;;;;;1.00;1.00;;;;;14.82;73.72;98615.19;5096067;28;8838;-57
2023/10/24 10:01:36;;;;;;;;;0.00;0.00;;;;;14.87;73.35;98620.81;5095030;28;8834;-57
2023/10/24 10:04:04;;;;;;;;;0.20;0.20;;;;;14.92;72.83;98631.84;5095218;28;8838;-58
2023/10/24 10:06:32;;;;;;;;;1.00;1.00;;;;;15.01;73.25;98629.91;5095269;28;8841;-57
2023/10/24 10:09:21;;;;;;;;;0.00;0.00;;;;;15.09;72.82;98633.34;5095995;28;8846;-58
2023/10/24 10:11:49;;;;;;;;;1.00;1.00;;;;;15.23;71.87;98626.31;5095311;28;8846;-57
2023/10/24 10:14:16;;;;;;;;;0.60;0.40;;;;;15.40;71.92;98620.63;5095445;28;8838;-57
2023/10/24 10:16:44;;;;;;;;;0.20;0.20;;;;;15.58;71.09;98610.38;5094933;28;8826;-58
2023/10/24 10:19:13;;;;;;;;;0.80;0.20;;;;;15.79;70.89;98606.94;5095345;28;8830;-57
2023/10/24 10:21:41;;;;;;;;;0.00;0.00;;;;;15.96;70.46;98603.00;5094980;28;8826;-57
2023/10/24 10:24:09;;;;;;;;;1.00;1.00;;;;;16.12;70.10;98603.63;5095752;28;8838;-58
2023/10/24 10:26:39;;;;;;;;;0.00;0.00;;;;;16.24;69.60;98599.41;5094827;28;8841;-58
2023/10/24 10:29:07;;;;;;;;;1.00;1.00;;;;;16.50;68.78;98594.34;5095890;28;8856;-58
2023/10/24 10:31:34;;;;;;;;;1.00;1.00;;;;;16.67;68.55;98577.75;5095699;28;8846;-58
2023/10/24 10:34:22;;;;;;;;;2.60;1.00;;;;;16.71;68.70;98576.31;5094275;28;8962;-57
2023/10/24 10:36:50;;;;;;;;;0.00;0.00;;;;;16.78;68.38;98571.84;5093253;28;8821;-58
2023/10/24 10:39:18;;;;;;;;;1.00;1.00;;;;;16.76;68.45;98571.22;5095152;28;8826;-58
2023/10/24 10:41:45;;;;;;;;;0.60;0.60;;;;;16.63;68.92;98571.09;5094115;28;9642;-57
2023/10/24 10:44:13;;;;;;;;;0.00;0.00;;;;;16.60;68.98;98568.81;5094749;28;8896;-57
2023/10/24 10:46:41;;;;;;;;;1.00;1.00;;;;;16.53;69.17;98562.53;5094499;28;8830;-57
2023/10/24 10:49:09;;;;;;;;;0.80;0.00;;;;;16.40;68.88;98567.78;5095167;28;8852;-58
2023/10/24 10:51:36;;;;;;;;;0.00;0.00;;;;;16.30;69.27;98566.41;5095231;28;8834;-58
2023/10/24 10:54:05;;;;;;;;;1.00;1.00;;;;;16.25;69.67;98561.59;5095158;28;8826;-57
2023/10/24 10:56:33;;;;;;;;;1.00;0.80;;;;;16.27;69.25;98558.72;5094542;28;8899;-58
2023/10/24 10:59:02;;;;;;;;;0.80;0.40;;;;;16.27;69.39;98551.50;5093414;28;8864;-58
2023/10/24 11:01:30;;;;;;;;;1.40;0.40;;;;;16.23;69.81;98551.25;5093356;28;8914;-57
2023/10/24 11:03:58;;;;;;;;;1.00;0.00;;;;;16.26;69.53;98551.69;5093210;28;8818;-58
2023/10/24 11:06:27;;;;;;;;;0.80;0.80;;;;;16.30;69.59;98545.75;5092132;28;8837;-58
2023/10/24 11:08:55;;;;;;;;;0.00;0.00;;;;;16.35;68.97;98542.47;5091622;28;8841;-58
2023/10/24 11:11:23;;;;;;;;;1.00;1.00;;;;;16.57;68.79;98536.09;5092655;28;8885;-58
2023/10/24 11:13:54;;;;;;;;;0.00;0.00;;;;;16.86;68.09;98534.03;5093086;28;8862;-58
2023/10/24 11:16:22;;;;;;;;;1.00;1.00;;;;;17.26;67.22;98524.38;5093324;28;8837;-58
2023/10/24 11:19:05;;;;;;;;;0.00;0.00;;;;;17.47;66.59;98525.13;5093957;28;9483;-58
2023/10/24 11:21:34;;;;;;;;;0.00;0.00;;;;;17.47;66.65;98533.19;5093794;28;8841;-58
2023/10/24 11:24:02;;;;;;;;;0.00;0.00;;;;;17.26;66.90;98529.75;5094325;28;8890;-58
2023/10/24 11:26:29;;;;;;;;;0.40;0.40;;;;;16.99;67.30;98528.78;5091688;28;8830;-58
2023/10/24 11:28:57;;;;;;;;;0.00;0.00;;;;;16.78;67.86;98539.56;5092811;28;8977;-59
2023/10/24 11:31:26;;;;;;;;;0.80;0.80;;;;;16.63;68.17;98540.72;5092646;28;8845;-57
2023/10/24 11:33:54;;;;;;;;;0.60;0.60;;;;;16.58;68.77;98543.97;5092414;28;8837;-58
2023/10/24 11:36:22;;;;;;;;;0.60;0.60;;;;;16.51;68.51;98534.19;5093345;28;8914;-58
2023/10/24 11:38:51;;;;;;;;;1.40;1.40;;;;;16.47;68.94;98530.22;5093471;28;8915;-58
2023/10/24 11:41:19;;;;;;;;;1.00;1.00;;;;;16.47;68.71;98535.63;5093737;28;8846;-58
2023/10/24 11:43:48;;;;;;;;;0.00;0.00;;;;;16.45;68.50;98532.25;5094000;28;8826;-58
2023/10/24 11:46:16;;;;;;;;;1.40;1.40;;;;;16.38;68.92;98526.00;5094061;28;8834;-59